Ch'i-shan, Taiwan
Current Conditions -  °F | °C
As of 8:30 PM on Friday 24 Oct 2014 (Local Time) from RCKH Reporting Station
Broken Clouds Broken Clouds  
Wind Chill: 81°   Ceiling: 10000
Heat Index: 84°   Visibility: 6mi
Dew Point: 70°   Wind: 1mph
Humidity: 70%   Direction: NA
Pressure: 30"   Gusts: NA
Location:  22.88°N, 120.47°E
Report Text: RCKH 241230Z VRB01KT 9999 FEW016 BKN100 27/21 Q1016 NOSIGRMK A3001
Loading
Personal Weather Stations






























Interactive Weather Map
Tropical Storm Tracking
New forecast layout! Learn more

10-Day Weather Forecast

Advertisements
Track Severe Weather on mobile